Time;durP1;ratioP1;P1;durP2;ratioP2;P2;SDS_P1;SDS_P2;PMS_P1;PMS_P2;Temp;Humidity;BMP_temperature;BMP_pressure;BME280_temperature;BME280_humidity;BME280_pressure;Samples;Min_cycle;Max_cycle;Signal;HPM_P1;HPM_P2
2021/03/24 00:00:40;;;;;;;29.08;9.55;;;7.50;82.60;;;;;;4971674;28;20019;-72
2021/03/24 00:03:06;;;;;;;28.65;10.20;;;7.60;82.70;;;;;;4972385;28;20459;-73
2021/03/24 00:05:38;;;;;;;23.70;7.68;;;7.50;82.60;;;;;;4986542;28;20046;-73
2021/03/24 00:08:05;;;;;;;31.05;8.90;;;7.50;82.60;;;;;;4991974;28;20485;-72
2021/03/24 00:10:31;;;;;;;29.23;9.18;;;7.40;82.50;;;;;;4992095;28;20022;-74
2021/03/24 00:12:58;;;;;;;24.38;8.77;;;7.40;82.60;;;;;;4992167;28;20029;-73
2021/03/24 00:15:25;;;;;;;22.38;8.00;;;7.40;82.60;;;;;;4991816;28;20022;-73
2021/03/24 00:17:51;;;;;;;23.73;8.48;;;7.40;82.60;;;;;;4992126;28;20023;-73
2021/03/24 00:20:21;;;;;;;21.02;8.07;;;7.40;82.60;;;;;;4974396;28;20451;-74
2021/03/24 00:22:47;;;;;;;23.05;8.82;;;7.40;82.60;;;;;;4992001;28;20089;-73
2021/03/24 00:25:15;;;;;;;18.80;9.27;;;7.40;82.70;;;;;;4991389;28;20378;-73
2021/03/24 00:27:46;;;;;;;22.77;8.45;;;7.30;82.60;;;;;;4974836;28;20444;-73
2021/03/24 00:30:13;;;;;;;24.38;8.77;;;7.30;82.70;;;;;;4995501;28;20018;-73
2021/03/24 00:32:39;;;;;;;25.20;8.23;;;7.30;82.70;;;;;;4996370;28;20061;-73
2021/03/24 00:35:07;;;;;;;23.20;9.43;;;7.30;82.70;;;;;;4995491;28;20033;-73
2021/03/24 00:37:33;;;;;;;25.55;8.38;;;7.30;82.70;;;;;;4996439;28;20021;-73
2021/03/24 00:39:59;;;;;;;19.95;7.28;;;7.30;82.70;;;;;;4996352;28;20026;-73
2021/03/24 00:42:24;;;;;;;26.00;8.50;;;7.20;82.60;;;;;;4995527;28;20362;-72
2021/03/24 00:44:50;;;;;;;21.58;8.43;;;7.20;82.70;;;;;;4995968;28;20022;-73
2021/03/24 00:47:16;;;;;;;21.00;8.63;;;7.20;82.70;;;;;;4995391;28;20022;-73
2021/03/24 00:49:41;;;;;;;21.80;8.43;;;7.20;82.70;;;;;;4978424;28;20021;-73
2021/03/24 00:52:07;;;;;;;21.95;8.38;;;7.20;82.70;;;;;;4995345;28;20137;-74
2021/03/24 00:54:33;;;;;;;22.52;7.18;;;7.10;82.60;;;;;;4995671;28;20026;-73
2021/03/24 00:56:59;;;;;;;19.52;7.95;;;7.10;82.60;;;;;;4978245;28;20089;-73
2021/03/24 00:59:24;;;;;;;27.33;9.20;;;7.10;82.70;;;;;;4995272;28;20022;-73
2021/03/24 01:01:50;;;;;;;23.77;9.15;;;7.10;82.70;;;;;;4995440;28;20023;-73
2021/03/24 01:04:17;;;;;;;21.98;7.90;;;7.10;82.70;;;;;;4977182;28;20022;-73
2021/03/24 01:06:42;;;;;;;25.30;9.38;;;7.00;82.60;;;;;;4978309;28;20443;-73
2021/03/24 01:09:09;;;;;;;21.30;8.30;;;7.00;82.60;;;;;;4973514;28;20076;-73
2021/03/24 01:11:39;;;;;;;24.92;7.82;;;7.00;82.70;;;;;;4976089;28;20022;-73
2021/03/24 01:14:06;;;;;;;22.65;7.80;;;7.00;82.70;;;;;;4975514;28;20027;-75
2021/03/24 01:16:33;;;;;;;20.90;7.93;;;7.00;82.70;;;;;;4976047;28;20023;-73
2021/03/24 01:18:58;;;;;;;22.38;8.65;;;6.90;82.70;;;;;;4975794;28;20033;-73
2021/03/24 01:21:24;;;;;;;18.63;7.47;;;7.00;82.80;;;;;;4975326;28;20094;-73
2021/03/24 01:23:50;;;;;;;18.55;7.70;;;6.90;82.70;;;;;;4975885;28;20026;-74
2021/03/24 01:26:17;;;;;;;21.30;8.27;;;6.90;82.70;;;;;;4975260;28;20420;-73
2021/03/24 01:28:43;;;;;;;23.75;9.23;;;6.90;83.40;;;;;;4975643;28;20045;-73
2021/03/24 01:31:09;;;;;;;23.10;8.00;;;6.90;82.80;;;;;;4974845;28;20455;-73
2021/03/24 01:33:35;;;;;;;25.40;8.85;;;6.90;82.80;;;;;;4975711;28;20027;-73
2021/03/24 01:36:01;;;;;;;27.77;9.20;;;6.90;82.80;;;;;;4958315;28;20418;-73
2021/03/24 01:38:26;;;;;;;18.63;7.72;;;6.90;82.80;;;;;;4975327;28;20046;-73
2021/03/24 01:40:55;;;;;;;21.67;8.55;;;6.90;82.80;;;;;;4975629;28;20023;-73
2021/03/24 01:43:40;;;;;;;25.20;9.00;;;6.90;82.80;;;;;;4957432;28;20118;-73
2021/03/24 01:46:17;;;;;;;19.02;7.30;;;6.90;82.70;;;;;;4958199;28;20077;-73
2021/03/24 01:49:10;;;;;;;30.48;9.82;;;6.80;82.70;;;;;;4975486;28;20022;-74
2021/03/24 01:51:42;;;;;;;23.27;8.50;;;6.80;82.80;;;;;;4959815;28;20042;-72
2021/03/24 01:54:11;;;;;;;21.80;7.70;;;6.80;82.80;;;;;;4989044;28;20022;-75
2021/03/24 01:56:39;;;;;;;24.50;7.75;;;6.70;82.80;;;;;;4977277;28;20026;-74
2021/03/24 01:59:07;;;;;;;17.90;7.93;;;6.70;82.70;;;;;;4994797;28;20038;-73
2021/03/24 02:01:32;;;;;;;27.25;9.50;;;6.70;82.80;;;;;;4994169;28;20022;-74
2021/03/24 02:03:58;;;;;;;19.27;9.07;;;6.70;82.80;;;;;;4976986;28;20335;-73
2021/03/24 02:06:29;;;;;;;22.65;8.10;;;6.70;82.90;;;;;;4994074;28;20147;-73
2021/03/24 02:09:11;;;;;;;24.20;9.52;;;6.70;82.90;;;;;;4976788;28;20026;-73
2021/03/24 02:11:54;;;;;;;21.20;8.10;;;6.70;82.90;;;;;;4977060;28;20340;-72
2021/03/24 02:14:27;;;;;;;25.75;9.07;;;6.60;82.90;;;;;;4993915;28;20018;-72
2021/03/24 02:16:54;;;;;;;24.35;9.43;;;6.60;83.00;;;;;;4994213;28;20026;-73
2021/03/24 02:19:46;;;;;;;23.73;8.20;;;6.60;82.90;;;;;;4993278;28;20347;-73
2021/03/24 02:22:16;;;;;;;26.17;8.65;;;6.60;83.00;;;;;;4976147;28;20049;-73
2021/03/24 02:25:00;;;;;;;21.85;7.80;;;6.60;83.00;;;;;;4994272;28;20101;-74
2021/03/24 02:27:51;;;;;;;24.23;8.23;;;6.60;83.00;;;;;;4993618;28;20022;-72
2021/03/24 02:30:20;;;;;;;;;;;6.60;83.00;;;;;;4976517;28;20018;-73
2021/03/24 02:33:01;;;;;;;21.50;8.85;;;6.50;82.90;;;;;;4993752;28;19984;-73
2021/03/24 02:35:31;;;;;;;22.30;7.95;;;6.50;83.00;;;;;;4993550;28;20026;-73
2021/03/24 02:37:59;;;;;;;24.23;8.90;;;6.50;82.90;;;;;;4994113;28;20041;-73
2021/03/24 02:40:27;;;;;;;23.15;8.38;;;6.50;83.00;;;;;;4975893;28;20414;-72
2021/03/24 02:42:54;;;;;;;21.98;9.13;;;6.50;83.00;;;;;;4994115;28;20030;-72
2021/03/24 02:45:27;;;;;;;22.38;8.40;;;6.50;83.00;;;;;;4975666;28;20014;-74
2021/03/24 02:48:00;;;;;;;20.98;8.00;;;6.50;83.00;;;;;;4993902;28;20034;-73
2021/03/24 02:50:27;;;;;;;22.27;8.02;;;6.50;83.00;;;;;;4975667;28;20113;-73
2021/03/24 02:52:53;;;;;;;29.83;8.50;;;6.50;83.00;;;;;;4993386;28;20022;-73
2021/03/24 02:55:21;;;;;;;22.02;8.02;;;6.50;83.00;;;;;;4975559;28;20374;-73
2021/03/24 02:57:47;;;;;;;26.67;9.63;;;6.40;83.00;;;;;;4993695;28;20026;-74
2021/03/24 03:00:17;;;;;;;25.98;8.90;;;6.40;83.00;;;;;;4975439;28;20050;-74
2021/03/24 03:02:47;;;;;;;24.00;8.60;;;6.40;83.00;;;;;;4993124;28;20421;-73
2021/03/24 03:05:18;;;;;;;29.17;8.90;;;6.40;83.10;;;;;;4992631;28;20129;-75
2021/03/24 03:07:47;;;;;;;23.13;8.77;;;6.40;83.10;;;;;;4975648;28;20018;-73
2021/03/24 03:10:34;;;;;;;25.52;8.18;;;6.40;83.10;;;;;;4993126;28;20031;-76
2021/03/24 03:13:09;;;;;;;21.10;7.40;;;6.40;83.10;;;;;;4975794;28;20160;-74
2021/03/24 03:15:46;;;;;;;22.75;8.02;;;6.40;83.10;;;;;;4975282;28;20026;-74
2021/03/24 03:18:29;;;;;;;19.92;7.72;;;6.30;83.10;;;;;;4993256;28;20068;-74
2021/03/24 03:20:59;;;;;;;25.83;9.20;;;6.30;83.00;;;;;;4993303;28;20113;-73
2021/03/24 03:23:28;;;;;;;23.42;8.60;;;6.30;83.10;;;;;;4992238;28;20033;-73
2021/03/24 03:26:14;;;;;;;23.45;8.93;;;6.30;83.10;;;;;;4993045;28;20033;-73
2021/03/24 03:28:45;;;;;;;23.02;8.05;;;6.30;83.10;;;;;;4993147;28;20015;-73
2021/03/24 03:31:15;;;;;;;30.85;9.23;;;6.30;83.10;;;;;;4992716;28;20454;-74
2021/03/24 03:33:45;;;;;;;23.25;7.65;;;6.20;83.10;;;;;;4993106;28;20022;-73
2021/03/24 03:36:12;;;;;;;28.40;8.50;;;6.20;83.20;;;;;;4993094;28;20023;-73
2021/03/24 03:38:39;;;;;;;29.30;9.27;;;6.30;83.30;;;;;;4974750;28;20405;-73
2021/03/24 03:41:08;;;;;;;24.90;8.10;;;6.30;83.20;;;;;;4992880;28;20062;-76
2021/03/24 03:43:35;;;;;;;26.60;9.20;;;6.20;83.20;;;;;;4974698;28;20474;-73
2021/03/24 03:46:03;;;;;;;28.55;10.40;;;6.20;83.20;;;;;;4992834;28;20033;-72
2021/03/24 03:48:29;;;;;;;23.02;8.60;;;6.20;83.20;;;;;;4991855;28;20071;-73
2021/03/24 03:51:02;;;;;;;22.58;9.07;;;6.20;83.20;;;;;;4975379;28;20022;-73
2021/03/24 03:53:38;;;;;;;22.73;8.90;;;6.20;83.20;;;;;;4974569;28;20479;-74
2021/03/24 03:56:14;;;;;;;25.45;8.00;;;6.20;83.30;;;;;;4992936;28;20454;-75
2021/03/24 03:58:54;;;;;;;20.65;8.02;;;6.20;83.30;;;;;;4992090;28;20022;-76
2021/03/24 04:01:24;;;;;;;27.98;10.05;;;6.20;83.20;;;;;;4992054;28;20045;-77
2021/03/24 04:03:57;;;;;;;30.77;10.15;;;6.20;83.30;;;;;;4974204;28;20514;-75
2021/03/24 04:06:34;;;;;;;25.10;9.60;;;6.10;83.20;;;;;;4991944;28;20049;-74
2021/03/24 04:09:01;;;;;;;21.90;9.30;;;6.10;83.30;;;;;;4992311;28;20041;-73
2021/03/24 04:11:33;;;;;;;24.95;8.95;;;6.10;83.30;;;;;;4974091;28;20414;-71
2021/03/24 04:14:02;;;;;;;26.63;8.55;;;6.10;83.30;;;;;;4992324;28;20022;-73
2021/03/24 04:16:28;;;;;;;25.88;8.73;;;6.10;83.30;;;;;;4974344;28;20160;-73
2021/03/24 04:19:03;;;;;;;25.52;9.48;;;6.10;83.40;;;;;;4992077;28;20514;-72
2021/03/24 04:21:35;;;;;;;27.30;9.82;;;6.00;83.30;;;;;;4974057;28;20053;-73
2021/03/24 04:24:05;;;;;;;;;;;6.00;83.30;;;;;;4992552;28;20494;-73
2021/03/24 04:26:40;;;;;;;23.93;8.47;;;5.90;83.20;;;;;;4992047;28;20000;-73
2021/03/24 04:29:14;;;;;;;21.73;8.60;;;6.00;83.30;;;;;;4992173;28;20046;-73
2021/03/24 04:31:48;;;;;;;26.48;8.75;;;6.00;83.30;;;;;;4991739;28;20458;-73
2021/03/24 04:34:14;;;;;;;24.65;8.82;;;6.00;83.40;;;;;;4992038;28;20414;-73
2021/03/24 04:36:43;;;;;;;27.80;8.60;;;5.90;83.30;;;;;;4991323;28;20228;-74
2021/03/24 04:39:45;;;;;;;32.85;8.85;;;6.00;83.40;;;;;;4992156;28;20045;-73
2021/03/24 04:42:33;;;;;;;25.02;8.63;;;6.00;83.40;;;;;;4991685;28;20051;-72
2021/03/24 04:45:14;;;;;;;27.30;8.90;;;6.00;83.30;;;;;;4992137;28;20026;-73
2021/03/24 04:47:46;;;;;;;29.75;9.77;;;5.90;83.30;;;;;;4991381;28;20259;-73
2021/03/24 04:50:25;;;;;;;27.80;10.05;;;5.90;83.30;;;;;;4974875;28;20054;-72
2021/03/24 04:52:53;;;;;;;22.92;9.25;;;5.90;83.30;;;;;;4992597;28;20034;-72
2021/03/24 04:55:23;;;;;;;24.27;10.02;;;5.80;83.30;;;;;;4992542;28;20018;-73
2021/03/24 04:57:52;;;;;;;20.53;9.17;;;5.90;83.40;;;;;;4992547;28;20553;-73
2021/03/24 05:00:31;;;;;;;23.98;9.48;;;5.80;83.30;;;;;;4992307;28;20069;-73
2021/03/24 05:03:02;;;;;;;24.92;9.73;;;5.90;83.40;;;;;;4992321;28;20023;-73
2021/03/24 05:05:30;;;;;;;23.42;8.38;;;5.80;83.40;;;;;;4991354;28;20529;-72
2021/03/24 05:08:20;;;;;;;24.55;8.30;;;5.80;83.40;;;;;;4985904;28;20046;-74
2021/03/24 05:10:47;;;;;;;34.40;11.68;;;5.80;83.40;;;;;;4971077;28;20034;-74
2021/03/24 05:13:17;;;;;;;22.10;7.65;;;5.80;83.40;;;;;;4955798;28;20026;-74
2021/03/24 05:15:51;;;;;;;26.45;9.55;;;5.80;83.40;;;;;;4974554;28;20184;-74
2021/03/24 05:18:17;;;;;;;22.35;8.80;;;5.80;83.40;;;;;;4971989;28;20320;-73
2021/03/24 05:21:09;;;;;;;25.13;8.55;;;5.80;83.40;;;;;;4994484;28;20247;-73
2021/03/24 05:23:34;;;;;;;;;;;5.70;83.30;;;;;;4995282;28;20085;-72
2021/03/24 05:26:21;;;;;;;30.85;8.82;;;5.70;83.30;;;;;;4994532;28;19909;-73
2021/03/24 05:28:53;;;;;;;35.83;13.15;;;5.70;83.30;;;;;;4993057;28;20156;-74
2021/03/24 05:31:23;;;;;;;32.78;11.13;;;5.70;83.30;;;;;;4995139;28;20033;-71
2021/03/24 05:34:12;;;;;;;27.63;10.60;;;5.70;83.30;;;;;;4994905;28;20065;-69
2021/03/24 05:36:44;;;;;;;27.42;9.38;;;5.70;83.30;;;;;;4994136;28;20070;-70
2021/03/24 05:39:30;;;;;;;24.15;10.13;;;5.70;83.30;;;;;;4995425;28;20029;-71
2021/03/24 05:42:18;;;;;;;25.77;8.80;;;5.70;83.30;;;;;;4995153;28;20465;-70
2021/03/24 05:44:49;;;;;;;28.02;9.70;;;5.60;83.30;;;;;;4994103;28;20014;-72
2021/03/24 05:47:48;;;;;;;29.42;9.43;;;5.60;83.30;;;;;;4977405;28;20027;-74
2021/03/24 05:50:47;;;;;;;24.92;9.02;;;5.60;83.20;;;;;;4976542;28;20533;-73
2021/03/24 05:53:51;;;;;;;26.65;9.95;;;5.60;83.30;;;;;;4957751;28;20027;-73
2021/03/24 05:56:40;;;;;;;21.08;7.28;;;5.60;83.30;;;;;;4958174;28;20015;-73
2021/03/24 05:59:31;;;;;;;30.95;9.73;;;5.60;83.30;;;;;;4975515;28;20019;-73
2021/03/24 06:01:59;;;;;;;22.20;7.78;;;5.60;83.30;;;;;;4975581;28;20031;-73
2021/03/24 06:04:28;;;;;;;17.50;7.30;;;5.50;83.20;;;;;;4975085;28;20031;-73
2021/03/24 06:06:59;;;;;;;23.13;8.25;;;5.60;83.30;;;;;;4974719;28;20043;-74
2021/03/24 06:09:43;;;;;;;;;;;5.60;83.30;;;;;;4958278;28;20133;-74
2021/03/24 06:12:46;;;;;;;22.63;7.78;;;5.50;83.20;;;;;;4975032;28;19906;-74
2021/03/24 06:15:49;;;;;;;22.55;7.68;;;5.50;83.10;;;;;;4974911;28;20106;-74
2021/03/24 06:18:29;;;;;;;22.42;6.53;;;5.60;83.20;;;;;;4974088;28;20586;-77
2021/03/24 06:21:22;;;;;;;22.38;7.88;;;5.50;83.10;;;;;;4992734;28;20057;-81
2021/03/24 06:23:56;;;;;;;19.92;6.88;;;5.60;83.20;;;;;;4973803;28;20018;-79
2021/03/24 06:26:31;;;;;;;24.70;8.43;;;5.60;83.20;;;;;;4991891;28;20479;-80
2021/03/24 06:29:35;;;;;;;20.48;7.93;;;5.60;83.20;;;;;;4993969;28;20023;-79
2021/03/24 06:32:16;;;;;;;22.10;6.97;;;5.60;83.20;;;;;;4959174;28;20034;-78
2021/03/24 06:35:06;;;;;;;17.17;6.27;;;5.60;83.10;;;;;;4991420;28;20109;-80
2021/03/24 06:37:50;;;;;;;18.45;7.25;;;5.60;83.20;;;;;;4993146;28;20084;-73
2021/03/24 06:40:50;;;;;;;18.50;7.05;;;5.60;83.10;;;;;;4990910;28;20037;-75
2021/03/24 06:43:59;;;;;;;18.73;6.57;;;5.70;83.10;;;;;;4993688;28;20037;-74
2021/03/24 06:46:57;;;;;;;19.65;7.47;;;5.70;83.10;;;;;;4992491;28;20450;-74
2021/03/24 06:49:47;;;;;;;22.25;7.65;;;5.70;83.00;;;;;;4975442;28;20074;-74
2021/03/24 06:52:28;;;;;;;23.65;7.15;;;5.70;83.10;;;;;;4976011;28;20048;-73
2021/03/24 06:55:09;;;;;;;21.90;7.45;;;5.70;83.00;;;;;;4975645;28;20466;-73
2021/03/24 06:57:56;;;;;;;19.08;7.30;;;5.80;83.10;;;;;;4993073;28;20022;-75
2021/03/24 07:00:48;;;;;;;19.90;6.43;;;5.80;83.10;;;;;;4993355;28;20067;-74
2021/03/24 07:03:51;;;;;;;17.75;6.93;;;5.90;83.10;;;;;;4975966;28;20494;-75
2021/03/24 07:06:32;;;;;;;23.35;8.63;;;5.90;83.10;;;;;;4975543;28;20046;-75
2021/03/24 07:09:15;;;;;;;19.90;8.10;;;6.00;83.20;;;;;;4993200;28;20022;-75
2021/03/24 07:12:17;;;;;;;24.63;8.30;;;6.00;83.10;;;;;;4992611;28;20018;-74
2021/03/24 07:14:42;;;;;;;;;;;6.10;83.10;;;;;;4992947;28;20467;-75
2021/03/24 07:17:37;;;;;;;22.55;8.43;;;6.10;82.80;;;;;;4975843;28;19909;-75
2021/03/24 07:20:30;;;;;;;28.50;9.80;;;6.20;82.90;;;;;;4993541;28;20030;-74
2021/03/24 07:23:14;;;;;;;27.20;9.65;;;6.20;83.50;;;;;;4992588;28;20087;-75
2021/03/24 07:25:52;;;;;;;29.73;8.95;;;6.30;82.90;;;;;;4975073;28;20027;-75
2021/03/24 07:28:33;;;;;;;24.88;9.15;;;6.30;82.90;;;;;;4993096;28;20483;-76
2021/03/24 07:31:20;;;;;;;23.23;8.52;;;6.40;83.00;;;;;;4993200;28;20022;-75
2021/03/24 07:34:06;;;;;;;32.53;9.70;;;6.50;83.00;;;;;;4974801;28;20481;-75
2021/03/24 07:36:43;;;;;;;24.88;8.52;;;6.50;83.00;;;;;;4975626;28;20068;-75
2021/03/24 07:39:14;;;;;;;29.20;10.82;;;6.50;83.00;;;;;;4992694;28;20022;-75
2021/03/24 07:41:58;;;;;;;25.23;8.98;;;6.60;83.00;;;;;;4992055;28;20018;-75
2021/03/24 07:44:44;;;;;;;23.95;8.73;;;6.70;83.10;;;;;;4975371;28;20034;-75
2021/03/24 07:47:19;;;;;;;26.25;9.23;;;6.70;83.10;;;;;;4992973;28;20018;-76
2021/03/24 07:49:57;;;;;;;27.33;9.38;;;6.80;83.10;;;;;;4974751;28;20022;-75
2021/03/24 07:53:00;;;;;;;28.38;9.55;;;6.80;83.10;;;;;;4975392;28;20038;-74
2021/03/24 07:55:41;;;;;;;29.35;11.52;;;6.90;83.00;;;;;;4974948;28;20026;-75
2021/03/24 07:58:16;;;;;;;;;;;6.90;83.00;;;;;;4993058;28;20023;-75
2021/03/24 08:01:06;;;;;;;27.48;9.73;;;6.90;82.80;;;;;;4991922;28;19956;-75
2021/03/24 08:03:59;;;;;;;39.85;11.35;;;7.00;82.90;;;;;;4992601;28;20061;-76
2021/03/24 08:07:09;;;;;;;28.15;11.30;;;7.10;83.00;;;;;;4992547;28;20043;-76
2021/03/24 08:09:59;;;;;;;26.15;10.55;;;7.20;83.00;;;;;;4916270;29;20043;-76
2021/03/24 08:12:53;;;;;;;38.67;10.50;;;7.30;83.00;;;;;;4932299;29;20122;-74
2021/03/24 08:15:31;;;;;;;35.03;11.73;;;7.30;83.10;;;;;;4981195;28;20121;-75
2021/03/24 08:18:28;;;;;;;30.40;11.40;;;7.30;83.10;;;;;;4991502;28;20081;-75
2021/03/24 08:21:28;;;;;;;31.42;11.95;;;7.50;83.10;;;;;;4991769;28;20081;-75
2021/03/24 08:24:08;;;;;;;32.85;12.07;;;7.50;83.00;;;;;;4991277;28;20382;-75
2021/03/24 08:26:49;;;;;;;31.27;12.27;;;7.60;83.00;;;;;;4992350;28;20447;-75
2021/03/24 08:29:33;;;;;;;46.33;15.48;;;7.70;83.00;;;;;;4992414;28;20010;-76
2021/03/24 08:32:36;;;;;;;27.77;12.60;;;7.80;82.90;;;;;;4991442;28;20023;-76
2021/03/24 08:35:24;;;;;;;30.35;10.77;;;7.90;82.90;;;;;;4991634;28;20029;-75
2021/03/24 08:37:58;;;;;;;29.10;11.07;;;7.90;82.70;;;;;;4992043;28;20023;-76
2021/03/24 08:40:44;;;;;;;29.50;12.27;;;8.00;82.70;;;;;;4992981;28;20018;-75
2021/03/24 08:43:41;;;;;;;33.42;13.45;;;8.10;82.70;;;;;;4974791;28;20093;-75
2021/03/24 08:46:27;;;;;;;39.13;14.30;;;8.10;82.70;;;;;;4974395;28;20081;-74
2021/03/24 08:48:52;;;;;;;36.50;13.98;;;8.20;82.70;;;;;;4991780;28;20022;-75
2021/03/24 08:51:50;;;;;;;35.92;12.30;;;8.20;82.50;;;;;;4995422;28;20026;-74
2021/03/24 08:54:34;;;;;;;32.20;13.23;;;8.30;82.40;;;;;;4978186;28;20489;-75
2021/03/24 08:57:35;;;;;;;34.08;15.32;;;8.40;82.40;;;;;;4995588;28;20091;-75
2021/03/24 09:00:23;;;;;;;31.20;11.93;;;8.50;82.20;;;;;;4995319;28;20018;-76
2021/03/24 09:03:07;;;;;;;35.40;12.40;;;8.60;82.10;;;;;;4994962;28;20034;-76
2021/03/24 09:05:43;;;;;;;36.45;12.57;;;8.60;82.00;;;;;;4995770;28;20046;-75
2021/03/24 09:08:26;;;;;;;36.15;10.80;;;8.70;81.90;;;;;;4995462;28;20023;-75
2021/03/24 09:11:14;;;;;;;35.70;14.07;;;8.80;81.80;;;;;;4994960;28;20095;-75
2021/03/24 09:13:45;;;;;;;30.80;11.85;;;8.90;81.70;;;;;;4995625;28;20084;-75
2021/03/24 09:16:30;;;;;;;;;;;8.90;81.60;;;;;;4979050;28;20022;-76
2021/03/24 09:19:26;;;;;;;32.97;12.90;;;8.90;81.40;;;;;;4998508;28;19901;-75
2021/03/24 09:22:16;;;;;;;40.85;13.55;;;9.00;81.10;;;;;;4998166;28;20435;-76
2021/03/24 09:24:53;;;;;;;35.72;12.05;;;9.10;81.00;;;;;;4995496;28;20023;-76
2021/03/24 09:27:22;;;;;;;34.10;12.07;;;9.20;80.90;;;;;;4995457;28;20045;-75
2021/03/24 09:30:16;;;;;;;32.00;12.25;;;9.20;80.80;;;;;;4977208;28;20019;-75
2021/03/24 09:33:13;;;;;;;33.67;11.85;;;9.30;80.60;;;;;;4977694;28;20030;-75
2021/03/24 09:36:09;;;;;;;36.78;12.68;;;9.40;80.50;;;;;;4995263;28;20018;-76
2021/03/24 09:38:38;;;;;;;29.02;11.40;;;9.50;80.30;;;;;;4977660;28;20052;-75
2021/03/24 09:41:22;;;;;;;28.33;11.50;;;9.50;80.20;;;;;;4976846;28;20025;-76
2021/03/24 09:43:56;;;;;;;27.30;11.45;;;9.60;79.90;;;;;;4994350;28;20053;-77
2021/03/24 09:46:28;;;;;;;37.17;13.55;;;9.70;79.50;;;;;;4977494;28;20361;-74
2021/03/24 09:49:16;;;;;;;34.95;12.27;;;9.80;78.80;;;;;;4993959;28;20022;-76
2021/03/24 09:52:30;;;;;;;27.38;11.40;;;9.80;78.80;;;;;;4994883;28;20033;-76
2021/03/24 09:55:16;;;;;;;28.92;12.38;;;9.90;78.90;;;;;;4994143;28;20025;-75
2021/03/24 09:57:47;;;;;;;30.58;12.27;;;9.90;78.80;;;;;;4994651;28;20077;-75
2021/03/24 10:00:16;;;;;;;28.92;12.13;;;9.90;78.80;;;;;;4994062;28;20406;-74
2021/03/24 10:02:55;;;;;;;26.63;12.43;;;10.00;78.70;;;;;;4993483;28;20031;-75
2021/03/24 10:05:57;;;;;;;31.42;12.68;;;10.10;78.40;;;;;;4994276;28;20046;-75
2021/03/24 10:08:30;;;;;;;32.03;12.02;;;10.20;78.30;;;;;;4963619;28;20042;-75
2021/03/24 10:11:03;;;;;;;27.65;10.88;;;10.30;77.90;;;;;;4993915;28;20018;-75
2021/03/24 10:13:35;;;;;;;26.15;10.20;;;10.40;77.50;;;;;;4994160;28;20149;-75
2021/03/24 10:16:11;;;;;;;26.27;11.32;;;10.50;76.90;;;;;;4976329;28;20022;-75
2021/03/24 10:19:00;;;;;;;28.60;11.23;;;10.50;76.80;;;;;;4976382;28;20090;-75
2021/03/24 10:21:38;;;;;;;34.22;12.57;;;10.70;76.70;;;;;;4994393;28;20026;-75
2021/03/24 10:24:30;;;;;;;28.33;11.43;;;10.70;75.90;;;;;;4994003;28;20057;-75
2021/03/24 10:27:07;;;;;;;28.00;11.15;;;10.80;75.40;;;;;;4976163;28;20015;-75
2021/03/24 10:29:48;;;;;;;31.27;11.50;;;11.00;75.10;;;;;;4993840;28;20022;-75
2021/03/24 10:32:49;;;;;;;26.58;11.63;;;11.00;74.40;;;;;;4993987;28;20351;-73
2021/03/24 10:35:36;;;;;;;23.60;10.05;;;11.10;73.80;;;;;;4943130;28;20034;-75
2021/03/24 10:38:11;;;;;;;28.25;9.85;;;11.10;73.80;;;;;;4993332;28;20096;-76
2021/03/24 10:40:41;;;;;;;25.25;8.70;;;11.20;74.00;;;;;;4993910;28;20037;-75
2021/03/24 10:43:16;;;;;;;27.08;9.45;;;11.30;74.10;;;;;;4993399;28;20462;-75
2021/03/24 10:46:02;;;;;;;21.58;9.18;;;11.30;74.80;;;;;;4993619;28;20019;-76
2021/03/24 10:48:40;;;;;;;26.23;9.48;;;11.40;74.20;;;;;;4976385;28;20022;-75
2021/03/24 10:51:11;;;;;;;22.80;9.48;;;11.50;74.10;;;;;;4975617;28;20480;-75
2021/03/24 10:53:37;;;;;;;26.90;11.07;;;11.60;73.60;;;;;;4993884;28;20015;-74
2021/03/24 10:56:27;;;;;;;27.08;9.48;;;11.80;72.00;;;;;;4975188;28;20113;-75
2021/03/24 10:58:58;;;;;;;30.55;10.20;;;11.90;71.70;;;;;;4992801;28;20418;-76
2021/03/24 11:01:25;;;;;;;;;;;12.00;71.40;;;;;;4993830;28;20014;-75
2021/03/24 11:04:14;;;;;;;23.48;9.75;;;12.00;71.00;;;;;;4992687;28;19910;-76
2021/03/24 11:07:04;;;;;;;21.83;9.25;;;12.10;70.20;;;;;;4992865;28;20421;-75
2021/03/24 11:09:50;;;;;;;29.33;8.35;;;12.20;69.70;;;;;;4993516;28;20030;-75
2021/03/24 11:12:20;;;;;;;22.48;8.35;;;12.20;69.60;;;;;;4992889;28;20336;-75
2021/03/24 11:15:00;;;;;;;19.90;8.13;;;12.30;69.80;;;;;;4975895;28;20023;-75
2021/03/24 11:17:32;;;;;;;18.50;7.47;;;12.40;69.80;;;;;;4993126;28;20203;-75
2021/03/24 11:20:04;;;;;;;23.42;8.57;;;12.40;69.90;;;;;;4975139;28;20336;-76
2021/03/24 11:22:48;;;;;;;20.33;7.22;;;12.50;69.70;;;;;;4992915;28;20070;-75
2021/03/24 11:25:28;;;;;;;20.88;7.70;;;12.70;69.50;;;;;;4992489;28;20439;-75
2021/03/24 11:28:03;;;;;;;22.77;8.18;;;12.80;68.30;;;;;;4993073;28;20018;-75
2021/03/24 11:30:39;;;;;;;15.82;6.30;;;12.90;67.70;;;;;;4975726;28;20018;-76
2021/03/24 11:33:18;;;;;;;22.13;8.73;;;13.00;66.90;;;;;;4992604;28;20438;-76
2021/03/24 11:36:18;;;;;;;16.40;7.63;;;13.20;66.60;;;;;;4975570;28;20011;-75
2021/03/24 11:39:13;;;;;;;22.55;8.68;;;13.30;66.40;;;;;;4992904;28;20022;-75
2021/03/24 11:41:40;;;;;;;17.52;6.38;;;13.60;66.60;;;;;;4971265;28;20030;-74
2021/03/24 11:44:13;;;;;;;19.85;7.80;;;13.70;66.20;;;;;;4974352;28;20443;-75
2021/03/24 11:46:42;;;;;;;21.83;8.32;;;14.00;64.10;;;;;;4992984;28;20018;-76
2021/03/24 11:49:42;;;;;;;21.80;7.80;;;14.10;62.90;;;;;;4974470;28;20054;-75
2021/03/24 11:52:20;;;;;;;21.25;7.30;;;14.30;63.40;;;;;;4992106;28;20018;-76
2021/03/24 11:54:49;;;;;;;15.82;6.55;;;14.30;62.10;;;;;;4992782;28;20482;-75
2021/03/24 11:57:45;;;;;;;14.15;6.18;;;14.50;62.00;;;;;;4992030;28;20026;-74
2021/03/24 12:00:29;;;;;;;15.77;8.10;;;14.70;61.40;;;;;;4992135;28;20045;-76
2021/03/24 12:03:04;;;;;;;16.70;8.05;;;14.80;59.70;;;;;;4991897;28;20031;-75
2021/03/24 12:05:39;;;;;;;17.70;6.68;;;14.90;60.00;;;;;;4992453;28;20030;-76
2021/03/24 12:08:21;;;;;;;16.65;5.95;;;15.00;59.50;;;;;;4991716;28;20035;-75
2021/03/24 12:11:17;;;;;;;17.73;6.82;;;15.20;59.90;;;;;;4992537;28;20062;-75
2021/03/24 12:13:43;;;;;;;15.20;7.43;;;15.30;59.70;;;;;;4974879;28;20046;-75
2021/03/24 12:16:12;;;;;;;18.45;7.05;;;15.30;59.80;;;;;;4991511;28;20046;-75
2021/03/24 12:18:55;;;;;;;15.57;7.07;;;15.30;59.80;;;;;;4992480;28;20366;-76
2021/03/24 12:21:39;;;;;;;16.63;6.35;;;15.40;60.00;;;;;;4992141;28;20026;-75
2021/03/24 12:24:23;;;;;;;14.82;6.90;;;15.40;59.70;;;;;;4974601;28;20026;-75
2021/03/24 12:26:49;;;;;;;14.48;5.03;;;15.40;59.80;;;;;;4979137;28;20081;-76
2021/03/24 12:29:25;;;;;;;16.58;6.85;;;15.50;60.00;;;;;;4995845;28;20351;-75
2021/03/24 12:31:59;;;;;;;14.80;7.03;;;15.60;59.60;;;;;;4996277;28;20027;-75
2021/03/24 12:34:28;;;;;;;21.80;7.80;;;15.70;58.70;;;;;;4995890;28;20058;-76
2021/03/24 12:36:59;;;;;;;14.25;6.55;;;15.70;58.00;;;;;;4996157;28;20026;-76
2021/03/24 12:39:32;;;;;;;14.55;6.00;;;15.70;56.50;;;;;;4996040;28;20131;-76
2021/03/24 12:42:10;;;;;;;16.42;6.35;;;15.70;57.70;;;;;;4978300;28;20072;-76
2021/03/24 12:44:41;;;;;;;15.73;6.60;;;15.80;56.70;;;;;;4996775;28;20022;-75
2021/03/24 12:47:28;;;;;;;16.88;6.13;;;15.70;56.80;;;;;;4978693;28;20407;-75
2021/03/24 12:50:09;;;;;;;17.92;6.55;;;15.80;56.50;;;;;;4979215;28;20015;-76
2021/03/24 12:53:04;;;;;;;15.80;6.07;;;15.80;55.80;;;;;;4979057;28;20037;-76
2021/03/24 12:55:31;;;;;;;14.45;6.35;;;15.70;56.60;;;;;;4999226;28;20106;-76
2021/03/24 12:58:21;;;;;;;14.95;6.28;;;15.70;56.70;;;;;;4980556;28;20033;-74
2021/03/24 13:01:06;;;;;;;13.02;5.40;;;15.80;57.40;;;;;;4978955;28;20018;-75
2021/03/24 13:03:50;;;;;;;13.25;5.88;;;15.80;57.80;;;;;;4995687;28;20030;-75
2021/03/24 13:06:37;;;;;;;12.05;6.10;;;15.90;57.00;;;;;;4995137;28;20092;-75
2021/03/24 13:09:39;;;;;;;18.13;7.13;;;15.90;56.40;;;;;;4995335;28;20076;-74
2021/03/24 13:12:28;;;;;;;14.25;6.90;;;15.90;56.20;;;;;;4995071;28;20467;-75
2021/03/24 13:15:04;;;;;;;17.67;7.18;;;16.00;56.70;;;;;;4995727;28;20026;-75
2021/03/24 13:17:35;;;;;;;16.75;7.03;;;16.00;56.80;;;;;;4995687;28;20022;-75
2021/03/24 13:20:17;;;;;;;12.73;4.88;;;15.90;57.00;;;;;;4977454;28;20363;-75
2021/03/24 13:22:56;;;;;;;14.93;6.10;;;15.90;57.10;;;;;;4977806;28;20030;-74
2021/03/24 13:25:34;;;;;;;12.85;5.90;;;16.00;56.90;;;;;;4994670;28;20019;-74
2021/03/24 13:28:06;;;;;;;12.77;6.18;;;16.10;57.30;;;;;;4977185;28;20438;-76
2021/03/24 13:30:50;;;;;;;16.45;6.55;;;16.10;56.00;;;;;;4977754;28;20347;-75
2021/03/24 13:33:27;;;;;;;15.73;6.43;;;16.10;55.70;;;;;;4994708;28;20108;-75
2021/03/24 13:36:08;;;;;;;15.85;6.18;;;16.10;55.60;;;;;;4977536;28;20049;-75
2021/03/24 13:38:58;;;;;;;16.15;5.75;;;16.10;55.70;;;;;;4995119;28;20097;-75